sensor_id;sensor_type;location;lat;lon;timestamp;pressure;altitude;pressure_sealevel;temperature;humidity
10646;BME280;5371;49.782;9.932;2022-07-09T00:00:58;100746.41;;;17.78;64.98
10646;BME280;5371;49.782;9.932;2022-07-09T00:03:25;100750.44;;;17.71;65.24
10646;BME280;5371;49.782;9.932;2022-07-09T00:05:52;100749.31;;;17.63;65.81
10646;BME280;5371;49.782;9.932;2022-07-09T00:08:19;100754.16;;;17.56;66.11
10646;BME280;5371;49.782;9.932;2022-07-09T00:10:46;100747.09;;;17.56;66.27
10646;BME280;5371;49.782;9.932;2022-07-09T00:13:13;100759.25;;;17.46;66.63
10646;BME280;5371;49.782;9.932;2022-07-09T00:15:41;100747.94;;;17.44;66.54
10646;BME280;5371;49.782;9.932;2022-07-09T00:18:09;100744.75;;;17.39;66.88
10646;BME280;5371;49.782;9.932;2022-07-09T00:20:36;100743.84;;;17.28;67.41
10646;BME280;5371;49.782;9.932;2022-07-09T00:23:03;100747.03;;;17.20;67.79
10646;BME280;5371;49.782;9.932;2022-07-09T00:25:30;100740.44;;;17.13;68.02
10646;BME280;5371;49.782;9.932;2022-07-09T00:27:57;100735.50;;;17.08;68.21
10646;BME280;5371;49.782;9.932;2022-07-09T00:30:24;100735.94;;;17.02;68.42
10646;BME280;5371;49.782;9.932;2022-07-09T00:32:52;100732.13;;;17.06;68.38
10646;BME280;5371;49.782;9.932;2022-07-09T00:35:19;100740.38;;;17.02;68.53
10646;BME280;5371;49.782;9.932;2022-07-09T00:37:46;100738.03;;;16.97;68.89
10646;BME280;5371;49.782;9.932;2022-07-09T00:40:13;100739.50;;;16.89;69.49
10646;BME280;5371;49.782;9.932;2022-07-09T00:42:40;100745.31;;;16.81;69.83
10646;BME280;5371;49.782;9.932;2022-07-09T00:45:07;100745.75;;;16.75;69.96
10646;BME280;5371;49.782;9.932;2022-07-09T00:47:34;100740.75;;;16.70;70.16
10646;BME280;5371;49.782;9.932;2022-07-09T00:50:03;100734.81;;;16.67;70.41
10646;BME280;5371;49.782;9.932;2022-07-09T00:52:31;100739.47;;;16.63;70.66
10646;BME280;5371;49.782;9.932;2022-07-09T00:55:00;100733.16;;;16.66;70.43
10646;BME280;5371;49.782;9.932;2022-07-09T00:57:28;100731.56;;;16.76;69.79
10646;BME280;5371;49.782;9.932;2022-07-09T00:59:56;100734.66;;;16.82;69.67
10646;BME280;5371;49.782;9.932;2022-07-09T01:02:24;100727.44;;;16.84;69.51
10646;BME280;5371;49.782;9.932;2022-07-09T01:04:51;100730.09;;;16.84;69.30
10646;BME280;5371;49.782;9.932;2022-07-09T01:07:19;100733.25;;;16.77;70.15
10646;BME280;5371;49.782;9.932;2022-07-09T01:09:46;100729.34;;;16.70;70.25
10646;BME280;5371;49.782;9.932;2022-07-09T01:12:13;100721.59;;;16.54;70.80
10646;BME280;5371;49.782;9.932;2022-07-09T01:14:40;100722.97;;;16.47;70.95
10646;BME280;5371;49.782;9.932;2022-07-09T01:17:07;100725.25;;;16.39;71.55
10646;BME280;5371;49.782;9.932;2022-07-09T01:19:34;100729.03;;;16.35;71.09
10646;BME280;5371;49.782;9.932;2022-07-09T01:22:03;100727.75;;;16.28;71.37
10646;BME280;5371;49.782;9.932;2022-07-09T01:24:30;100718.75;;;16.18;71.38
10646;BME280;5371;49.782;9.932;2022-07-09T01:26:57;100725.50;;;16.22;71.54
10646;BME280;5371;49.782;9.932;2022-07-09T01:29:24;100721.31;;;16.19;71.69
10646;BME280;5371;49.782;9.932;2022-07-09T01:31:51;100718.44;;;16.22;71.39
10646;BME280;5371;49.782;9.932;2022-07-09T01:34:18;100720.75;;;16.14;71.28
10646;BME280;5371;49.782;9.932;2022-07-09T01:36:45;100712.41;;;16.07;71.61
10646;BME280;5371;49.782;9.932;2022-07-09T01:39:14;100706.38;;;16.05;71.51
10646;BME280;5371;49.782;9.932;2022-07-09T01:41:41;100704.66;;;16.04;71.59
10646;BME280;5371;49.782;9.932;2022-07-09T01:44:08;100705.50;;;15.92;72.33
10646;BME280;5371;49.782;9.932;2022-07-09T01:46:35;100704.75;;;15.90;72.54
10646;BME280;5371;49.782;9.932;2022-07-09T01:49:02;100701.41;;;15.74;72.83
10646;BME280;5371;49.782;9.932;2022-07-09T01:51:29;100689.66;;;15.65;73.46
10646;BME280;5371;49.782;9.932;2022-07-09T01:53:57;100692.06;;;15.68;73.21
10646;BME280;5371;49.782;9.932;2022-07-09T01:56:25;100695.03;;;15.64;73.69
10646;BME280;5371;49.782;9.932;2022-07-09T01:58:52;100687.41;;;15.59;73.37
10646;BME280;5371;49.782;9.932;2022-07-09T02:01:19;100684.22;;;15.54;73.58
10646;BME280;5371;49.782;9.932;2022-07-09T02:03:47;100678.19;;;15.38;74.12
10646;BME280;5371;49.782;9.932;2022-07-09T02:06:14;100681.28;;;15.30;74.76
10646;BME280;5371;49.782;9.932;2022-07-09T02:08:41;100680.56;;;15.28;74.93
10646;BME280;5371;49.782;9.932;2022-07-09T02:11:08;100678.66;;;15.30;75.17
10646;BME280;5371;49.782;9.932;2022-07-09T02:13:37;100684.78;;;15.31;75.11
10646;BME280;5371;49.782;9.932;2022-07-09T02:16:04;100686.94;;;15.24;75.60
10646;BME280;5371;49.782;9.932;2022-07-09T02:18:31;100688.09;;;15.20;75.94
10646;BME280;5371;49.782;9.932;2022-07-09T02:20:58;100690.06;;;15.17;76.35
10646;BME280;5371;49.782;9.932;2022-07-09T02:23:25;100693.47;;;15.19;76.34
10646;BME280;5371;49.782;9.932;2022-07-09T02:25:52;100688.91;;;15.21;76.71
10646;BME280;5371;49.782;9.932;2022-07-09T02:28:19;100687.44;;;15.17;76.47
10646;BME280;5371;49.782;9.932;2022-07-09T02:30:47;100687.53;;;15.15;76.68
10646;BME280;5371;49.782;9.932;2022-07-09T02:33:14;100680.56;;;15.14;76.66
10646;BME280;5371;49.782;9.932;2022-07-09T02:35:41;100682.25;;;15.15;76.59
10646;BME280;5371;49.782;9.932;2022-07-09T02:38:08;100684.78;;;15.17;76.51
10646;BME280;5371;49.782;9.932;2022-07-09T02:40:35;100682.44;;;15.12;76.71
10646;BME280;5371;49.782;9.932;2022-07-09T02:43:02;100680.78;;;15.11;77.33
10646;BME280;5371;49.782;9.932;2022-07-09T02:45:29;100678.31;;;15.08;77.08
10646;BME280;5371;49.782;9.932;2022-07-09T02:47:58;100675.59;;;15.10;77.08
10646;BME280;5371;49.782;9.932;2022-07-09T02:50:25;100681.78;;;15.09;77.14
10646;BME280;5371;49.782;9.932;2022-07-09T02:52:52;100681.88;;;15.07;77.17
10646;BME280;5371;49.782;9.932;2022-07-09T02:55:19;100693.19;;;15.09;77.24
10646;BME280;5371;49.782;9.932;2022-07-09T02:57:46;100689.59;;;15.10;77.07
10646;BME280;5371;49.782;9.932;2022-07-09T03:00:13;100681.59;;;15.12;77.23
10646;BME280;5371;49.782;9.932;2022-07-09T03:02:40;100676.22;;;15.13;76.83
10646;BME280;5371;49.782;9.932;2022-07-09T03:05:09;100687.59;;;15.14;76.67
10646;BME280;5371;49.782;9.932;2022-07-09T03:07:36;100684.13;;;15.13;76.74
10646;BME280;5371;49.782;9.932;2022-07-09T03:10:03;100675.66;;;15.22;76.66
10646;BME280;5371;49.782;9.932;2022-07-09T03:12:30;100677.34;;;15.23;77.09
10646;BME280;5371;49.782;9.932;2022-07-09T03:14:57;100678.28;;;15.22;77.52
10646;BME280;5371;49.782;9.932;2022-07-09T03:17:24;100689.03;;;15.19;77.77
10646;BME280;5371;49.782;9.932;2022-07-09T03:19:52;100681.69;;;15.24;77.38
10646;BME280;5371;49.782;9.932;2022-07-09T03:22:20;100684.13;;;15.13;77.35
10646;BME280;5371;49.782;9.932;2022-07-09T03:24:47;100672.97;;;15.10;77.47
10646;BME280;5371;49.782;9.932;2022-07-09T03:27:14;100673.06;;;15.08;77.63
10646;BME280;5371;49.782;9.932;2022-07-09T03:29:41;100681.00;;;15.21;76.77
10646;BME280;5371;49.782;9.932;2022-07-09T03:32:08;100673.81;;;15.10;76.60
10646;BME280;5371;49.782;9.932;2022-07-09T03:34:37;100670.25;;;15.11;76.49
10646;BME280;5371;49.782;9.932;2022-07-09T03:37:05;100669.66;;;15.06;76.95
10646;BME280;5371;49.782;9.932;2022-07-09T03:39:33;100671.63;;;15.03;77.37
10646;BME280;5371;49.782;9.932;2022-07-09T03:42:00;100664.03;;;14.98;77.74
10646;BME280;5371;49.782;9.932;2022-07-09T03:44:27;100670.81;;;15.02;77.69
10646;BME280;5371;49.782;9.932;2022-07-09T03:46:54;100668.63;;;15.09;78.16
10646;BME280;5371;49.782;9.932;2022-07-09T03:49:21;100665.06;;;15.10;77.95
10646;BME280;5371;49.782;9.932;2022-07-09T03:51:48;100669.84;;;15.03;78.48
10646;BME280;5371;49.782;9.932;2022-07-09T03:54:15;100662.91;;;15.02;78.46
10646;BME280;5371;49.782;9.932;2022-07-09T03:56:43;100663.63;;;15.04;78.48
10646;BME280;5371;49.782;9.932;2022-07-09T03:59:10;100666.28;;;15.18;77.73
10646;BME280;5371;49.782;9.932;2022-07-09T04:01:37;100666.81;;;15.23;77.44
10646;BME280;5371;49.782;9.932;2022-07-09T04:04:04;100667.75;;;15.22;77.97
10646;BME280;5371;49.782;9.932;2022-07-09T04:06:31;100663.00;;;15.01;78.46
10646;BME280;5371;49.782;9.932;2022-07-09T04:08:58;100664.69;;;15.02;78.42
10646;BME280;5371;49.782;9.932;2022-07-09T04:11:29;100667.50;;;14.98;78.73
10646;BME280;5371;49.782;9.932;2022-07-09T04:13:57;100661.94;;;15.03;78.74
10646;BME280;5371;49.782;9.932;2022-07-09T04:16:24;100663.44;;;15.07;78.38
10646;BME280;5371;49.782;9.932;2022-07-09T04:18:51;100669.28;;;15.12;78.53
10646;BME280;5371;49.782;9.932;2022-07-09T04:21:18;100666.84;;;15.09;78.59
10646;BME280;5371;49.782;9.932;2022-07-09T04:23:47;100672.19;;;15.08;78.73
10646;BME280;5371;49.782;9.932;2022-07-09T04:26:14;100678.88;;;15.13;78.80
10646;BME280;5371;49.782;9.932;2022-07-09T04:28:41;100672.84;;;15.25;77.98
10646;BME280;5371;49.782;9.932;2022-07-09T04:31:09;100671.81;;;15.28;78.24
10646;BME280;5371;49.782;9.932;2022-07-09T04:33:36;100669.09;;;15.29;78.79
10646;BME280;5371;49.782;9.932;2022-07-09T04:36:04;100669.91;;;15.30;78.75
10646;BME280;5371;49.782;9.932;2022-07-09T04:38:31;100676.88;;;15.31;78.81
10646;BME280;5371;49.782;9.932;2022-07-09T04:40:58;100683.75;;;15.33;78.99
10646;BME280;5371;49.782;9.932;2022-07-09T04:43:25;100678.19;;;15.38;79.08
10646;BME280;5371;49.782;9.932;2022-07-09T04:45:52;100681.47;;;15.42;78.92
10646;BME280;5371;49.782;9.932;2022-07-09T04:48:20;100673.75;;;15.53;78.46
10646;BME280;5371;49.782;9.932;2022-07-09T04:50:47;100676.84;;;15.59;78.33
10646;BME280;5371;49.782;9.932;2022-07-09T04:53:14;100673.38;;;15.59;77.89
10646;BME280;5371;49.782;9.932;2022-07-09T04:55:41;100675.63;;;15.65;77.88
10646;BME280;5371;49.782;9.932;2022-07-09T04:58:08;100673.72;;;15.67;77.53
10646;BME280;5371;49.782;9.932;2022-07-09T05:00:36;100678.47;;;15.62;78.21
10646;BME280;5371;49.782;9.932;2022-07-09T05:03:03;100679.75;;;15.69;77.60
10646;BME280;5371;49.782;9.932;2022-07-09T05:05:31;100669.19;;;15.83;76.73
10646;BME280;5371;49.782;9.932;2022-07-09T05:07:58;100669.09;;;15.97;75.79
10646;BME280;5371;49.782;9.932;2022-07-09T05:10:25;100670.09;;;16.09;74.96
10646;BME280;5371;49.782;9.932;2022-07-09T05:12:52;100672.97;;;16.19;74.87
10646;BME280;5371;49.782;9.932;2022-07-09T05:15:19;100667.00;;;16.29;74.32
10646;BME280;5371;49.782;9.932;2022-07-09T05:17:46;100666.66;;;16.34;73.92
10646;BME280;5371;49.782;9.932;2022-07-09T05:20:12;100669.34;;;16.46;73.34
10646;BME280;5371;49.782;9.932;2022-07-09T05:22:41;100666.19;;;16.54;72.84
10646;BME280;5371;49.782;9.932;2022-07-09T05:25:08;100663.56;;;16.67;72.15
10646;BME280;5371;49.782;9.932;2022-07-09T05:27:43;100666.00;;;16.82;71.46
10646;BME280;5371;49.782;9.932;2022-07-09T05:30:12;100674.84;;;16.94;71.46
10646;BME280;5371;49.782;9.932;2022-07-09T05:32:40;100670.22;;;16.98;71.05
10646;BME280;5371;49.782;9.932;2022-07-09T05:35:08;100665.34;;;17.04;71.02
10646;BME280;5371;49.782;9.932;2022-07-09T05:37:41;100671.69;;;17.14;70.72
10646;BME280;5371;49.782;9.932;2022-07-09T05:40:09;100662.34;;;17.21;70.30
10646;BME280;5371;49.782;9.932;2022-07-09T05:42:37;100664.06;;;17.23;70.16
10646;BME280;5371;49.782;9.932;2022-07-09T05:45:05;100664.16;;;17.21;70.02
10646;BME280;5371;49.782;9.932;2022-07-09T05:47:32;100654.44;;;17.21;69.92
10646;BME280;5371;49.782;9.932;2022-07-09T05:49:59;100655.06;;;17.25;69.87
10646;BME280;5371;49.782;9.932;2022-07-09T05:52:26;100656.31;;;17.32;69.69
10646;BME280;5371;49.782;9.932;2022-07-09T05:54:55;100656.59;;;17.40;69.87
10646;BME280;5371;49.782;9.932;2022-07-09T05:57:22;100656.41;;;17.43;69.97
10646;BME280;5371;49.782;9.932;2022-07-09T05:59:49;100659.78;;;17.45;69.94
10646;BME280;5371;49.782;9.932;2022-07-09T06:02:16;100658.88;;;17.57;69.77
10646;BME280;5371;49.782;9.932;2022-07-09T06:04:44;100652.28;;;17.76;69.01
10646;BME280;5371;49.782;9.932;2022-07-09T06:07:11;100648.75;;;17.88;68.79
10646;BME280;5371;49.782;9.932;2022-07-09T06:09:38;100649.59;;;17.88;68.51
10646;BME280;5371;49.782;9.932;2022-07-09T06:12:07;100658.91;;;18.05;67.94
10646;BME280;5371;49.782;9.932;2022-07-09T06:14:34;100647.91;;;18.11;67.85
10646;BME280;5371;49.782;9.932;2022-07-09T06:17:01;100650.97;;;18.29;67.28
10646;BME280;5371;49.782;9.932;2022-07-09T06:19:32;100646.88;;;18.36;66.91
10646;BME280;5371;49.782;9.932;2022-07-09T06:21:58;100651.75;;;18.53;66.47
10646;BME280;5371;49.782;9.932;2022-07-09T06:24:25;100642.19;;;18.75;65.71
10646;BME280;5371;49.782;9.932;2022-07-09T06:26:52;100640.59;;;18.94;64.91
10646;BME280;5371;49.782;9.932;2022-07-09T06:29:21;100640.84;;;19.25;63.89
10646;BME280;5371;49.782;9.932;2022-07-09T06:31:48;100641.28;;;19.41;63.29
10646;BME280;5371;49.782;9.932;2022-07-09T06:34:14;100642.28;;;19.51;62.41
10646;BME280;5371;49.782;9.932;2022-07-09T06:36:41;100634.63;;;19.69;62.09
10646;BME280;5371;49.782;9.932;2022-07-09T06:39:10;100636.66;;;19.76;61.57
10646;BME280;5371;49.782;9.932;2022-07-09T06:41:54;100636.06;;;20.05;60.85
10646;BME280;5371;49.782;9.932;2022-07-09T06:44:23;100637.44;;;20.20;60.08
10646;BME280;5371;49.782;9.932;2022-07-09T06:46:50;100646.06;;;20.33;59.79
10646;BME280;5371;49.782;9.932;2022-07-09T06:49:17;100642.47;;;20.34;59.52
10646;BME280;5371;49.782;9.932;2022-07-09T06:51:43;100641.69;;;20.43;58.99
10646;BME280;5371;49.782;9.932;2022-07-09T06:54:10;100632.69;;;20.56;58.71
10646;BME280;5371;49.782;9.932;2022-07-09T06:56:37;100643.63;;;20.62;58.07
10646;BME280;5371;49.782;9.932;2022-07-09T06:59:04;100644.41;;;20.74;57.67
10646;BME280;5371;49.782;9.932;2022-07-09T07:01:32;100643.66;;;20.92;56.95
10646;BME280;5371;49.782;9.932;2022-07-09T07:03:59;100644.75;;;20.90;56.93
10646;BME280;5371;49.782;9.932;2022-07-09T07:06:26;100635.09;;;21.19;56.17
10646;BME280;5371;49.782;9.932;2022-07-09T07:08:53;100637.66;;;21.40;55.20
10646;BME280;5371;49.782;9.932;2022-07-09T07:11:22;100632.94;;;21.44;54.95
10646;BME280;5371;49.782;9.932;2022-07-09T07:13:49;100635.03;;;21.59;54.65
10646;BME280;5371;49.782;9.932;2022-07-09T07:16:15;100639.13;;;21.73;54.41
10646;BME280;5371;49.782;9.932;2022-07-09T07:18:44;100639.19;;;22.02;53.38
10646;BME280;5371;49.782;9.932;2022-07-09T07:21:11;100634.41;;;22.06;53.26
10646;BME280;5371;49.782;9.932;2022-07-09T07:23:38;100639.69;;;22.44;52.49
10646;BME280;5371;49.782;9.932;2022-07-09T07:26:04;100635.97;;;22.93;50.82
10646;BME280;5371;49.782;9.932;2022-07-09T07:28:31;100631.63;;;23.20;50.05
10646;BME280;5371;49.782;9.932;2022-07-09T07:30:58;100628.16;;;23.37;49.86
10646;BME280;5371;49.782;9.932;2022-07-09T07:33:25;100629.50;;;23.41;49.77
10646;BME280;5371;49.782;9.932;2022-07-09T07:35:53;100629.13;;;23.63;49.35
10646;BME280;5371;49.782;9.932;2022-07-09T07:38:20;100622.66;;;24.19;47.50
10646;BME280;5371;49.782;9.932;2022-07-09T07:40:48;100630.06;;;24.25;47.15
10646;BME280;5371;49.782;9.932;2022-07-09T07:43:14;100620.59;;;23.95;47.76
10646;BME280;5371;49.782;9.932;2022-07-09T07:45:42;100626.53;;;24.24;47.14
10646;BME280;5371;49.782;9.932;2022-07-09T07:48:09;100625.38;;;24.45;46.19
10646;BME280;5371;49.782;9.932;2022-07-09T07:50:35;100622.19;;;24.93;45.14
10646;BME280;5371;49.782;9.932;2022-07-09T07:53:05;100618.31;;;25.29;44.45
10646;BME280;5371;49.782;9.932;2022-07-09T07:55:33;100608.56;;;25.70;43.29
10646;BME280;5371;49.782;9.932;2022-07-09T07:58:00;100604.75;;;26.30;42.04
10646;BME280;5371;49.782;9.932;2022-07-09T08:00:27;100608.25;;;26.55;41.52
10646;BME280;5371;49.782;9.932;2022-07-09T08:02:53;100607.50;;;26.77;40.64
10646;BME280;5371;49.782;9.932;2022-07-09T08:05:20;100608.56;;;26.52;40.91
10646;BME280;5371;49.782;9.932;2022-07-09T08:07:47;100599.16;;;26.72;40.14
10646;BME280;5371;49.782;9.932;2022-07-09T08:10:16;100601.31;;;26.76;40.67
10646;BME280;5371;49.782;9.932;2022-07-09T08:12:43;100597.53;;;27.10;40.03
10646;BME280;5371;49.782;9.932;2022-07-09T08:15:10;100599.94;;;27.28;39.78
10646;BME280;5371;49.782;9.932;2022-07-09T08:17:37;100596.34;;;27.12;39.30
10646;BME280;5371;49.782;9.932;2022-07-09T08:20:05;100590.34;;;27.02;39.88
10646;BME280;5371;49.782;9.932;2022-07-09T08:22:32;100586.09;;;26.61;40.62
10646;BME280;5371;49.782;9.932;2022-07-09T08:24:59;100581.78;;;25.70;42.17
10646;BME280;5371;49.782;9.932;2022-07-09T08:27:27;100579.59;;;25.58;42.82
10646;BME280;5371;49.782;9.932;2022-07-09T08:29:54;100576.84;;;25.33;42.96
10646;BME280;5371;49.782;9.932;2022-07-09T08:32:21;100576.84;;;25.42;43.11
10646;BME280;5371;49.782;9.932;2022-07-09T08:34:48;100574.41;;;24.98;43.97
10646;BME280;5371;49.782;9.932;2022-07-09T08:37:15;100575.94;;;24.75;43.59
10646;BME280;5371;49.782;9.932;2022-07-09T08:39:42;100571.97;;;24.53;43.44
10646;BME280;5371;49.782;9.932;2022-07-09T08:42:09;100572.72;;;24.37;43.59
10646;BME280;5371;49.782;9.932;2022-07-09T08:44:39;100564.59;;;24.21;44.08
10646;BME280;5371;49.782;9.932;2022-07-09T08:47:09;100567.47;;;23.84;44.32
10646;BME280;5371;49.782;9.932;2022-07-09T08:49:37;100568.13;;;23.86;44.35
10646;BME280;5371;49.782;9.932;2022-07-09T08:52:05;100567.97;;;23.70;46.12
10646;BME280;5371;49.782;9.932;2022-07-09T08:54:34;100564.75;;;24.02;46.29
10646;BME280;5371;49.782;9.932;2022-07-09T08:57:03;100564.41;;;23.61;47.55
10646;BME280;5371;49.782;9.932;2022-07-09T08:59:30;100561.44;;;23.64;47.36
10646;BME280;5371;49.782;9.932;2022-07-09T09:02:03;100562.97;;;23.67;47.07
10646;BME280;5371;49.782;9.932;2022-07-09T09:04:30;100560.44;;;23.83;46.88
10646;BME280;5371;49.782;9.932;2022-07-09T09:06:59;100563.00;;;24.10;45.69
10646;BME280;5371;49.782;9.932;2022-07-09T09:09:26;100563.03;;;24.36;43.60
10646;BME280;5371;49.782;9.932;2022-07-09T09:11:55;100557.66;;;24.62;42.41
10646;BME280;5371;49.782;9.932;2022-07-09T09:14:23;100552.25;;;24.88;40.86
10646;BME280;5371;49.782;9.932;2022-07-09T09:16:51;100562.13;;;24.87;41.01
10646;BME280;5371;49.782;9.932;2022-07-09T09:19:22;100559.34;;;24.63;40.85
10646;BME280;5371;49.782;9.932;2022-07-09T09:21:51;100561.78;;;24.48;41.52
10646;BME280;5371;49.782;9.932;2022-07-09T09:24:22;100562.38;;;24.42;42.00
10646;BME280;5371;49.782;9.932;2022-07-09T09:26:49;100562.88;;;24.38;42.50
10646;BME280;5371;49.782;9.932;2022-07-09T09:29:16;100562.34;;;24.16;42.90
10646;BME280;5371;49.782;9.932;2022-07-09T09:31:45;100572.16;;;23.90;43.40
10646;BME280;5371;49.782;9.932;2022-07-09T09:34:15;100565.91;;;23.46;43.59
10646;BME280;5371;49.782;9.932;2022-07-09T09:36:45;100559.88;;;23.44;43.17
10646;BME280;5371;49.782;9.932;2022-07-09T09:39:17;100570.91;;;23.31;43.45
10646;BME280;5371;49.782;9.932;2022-07-09T09:41:45;100568.53;;;23.10;43.83
10646;BME280;5371;49.782;9.932;2022-07-09T09:44:15;100565.94;;;23.19;44.51
10646;BME280;5371;49.782;9.932;2022-07-09T09:46:43;100563.44;;;23.17;44.93
10646;BME280;5371;49.782;9.932;2022-07-09T09:49:12;100561.44;;;23.19;44.76
10646;BME280;5371;49.782;9.932;2022-07-09T09:51:50;100563.72;;;23.59;44.47
10646;BME280;5371;49.782;9.932;2022-07-09T09:54:19;100567.13;;;23.87;43.72
10646;BME280;5371;49.782;9.932;2022-07-09T09:56:46;100561.31;;;24.09;43.23
10646;BME280;5371;49.782;9.932;2022-07-09T09:59:14;100564.03;;;24.17;43.60
10646;BME280;5371;49.782;9.932;2022-07-09T10:01:43;100555.88;;;24.71;42.65
10646;BME280;5371;49.782;9.932;2022-07-09T10:04:12;100547.06;;;25.12;42.00
10646;BME280;5371;49.782;9.932;2022-07-09T10:06:40;100538.56;;;25.33;42.10
10646;BME280;5371;49.782;9.932;2022-07-09T10:09:11;100548.59;;;25.31;42.35
10646;BME280;5371;49.782;9.932;2022-07-09T10:11:39;100558.47;;;25.30;42.41
10646;BME280;5371;49.782;9.932;2022-07-09T10:14:07;100549.28;;;24.91;42.53
10646;BME280;5371;49.782;9.932;2022-07-09T10:16:36;100563.19;;;24.69;43.00
10646;BME280;5371;49.782;9.932;2022-07-09T10:19:04;100555.69;;;24.38;43.37
10646;BME280;5371;49.782;9.932;2022-07-09T10:21:37;100553.94;;;24.21;44.30
10646;BME280;5371;49.782;9.932;2022-07-09T10:24:05;100551.56;;;24.00;44.90
10646;BME280;5371;49.782;9.932;2022-07-09T10:26:43;100549.75;;;23.83;45.67
10646;BME280;5371;49.782;9.932;2022-07-09T10:29:23;100550.81;;;23.90;45.43
10646;BME280;5371;49.782;9.932;2022-07-09T10:31:51;100552.66;;;23.72;45.51
10646;BME280;5371;49.782;9.932;2022-07-09T10:34:49;100550.06;;;23.80;46.02
10646;BME280;5371;49.782;9.932;2022-07-09T10:37:33;100546.50;;;23.71;45.58
10646;BME280;5371;49.782;9.932;2022-07-09T10:40:11;100542.31;;;23.95;45.13
10646;BME280;5371;49.782;9.932;2022-07-09T10:42:40;100546.84;;;23.76;45.67
10646;BME280;5371;49.782;9.932;2022-07-09T10:45:21;100545.56;;;23.80;45.75
10646;BME280;5371;49.782;9.932;2022-07-09T10:47:56;100543.09;;;23.87;45.51
10646;BME280;5371;49.782;9.932;2022-07-09T10:50:24;100532.13;;;23.90;45.13
10646;BME280;5371;49.782;9.932;2022-07-09T10:52:51;100538.31;;;24.34;44.48
10646;BME280;5371;49.782;9.932;2022-07-09T10:55:19;100529.91;;;24.55;44.08
10646;BME280;5371;49.782;9.932;2022-07-09T10:57:48;100527.47;;;24.36;43.92
10646;BME280;5371;49.782;9.932;2022-07-09T11:00:16;100523.56;;;24.56;43.92
10646;BME280;5371;49.782;9.932;2022-07-09T11:02:54;100513.94;;;24.71;43.10
10646;BME280;5371;49.782;9.932;2022-07-09T11:05:22;100510.78;;;25.18;42.38
10646;BME280;5371;49.782;9.932;2022-07-09T11:07:57;100506.28;;;25.43;41.68
10646;BME280;5371;49.782;9.932;2022-07-09T11:10:25;100502.63;;;25.35;41.60
10646;BME280;5371;49.782;9.932;2022-07-09T11:12:54;100504.28;;;25.45;41.85
10646;BME280;5371;49.782;9.932;2022-07-09T11:15:24;100498.66;;;25.64;41.64
10646;BME280;5371;49.782;9.932;2022-07-09T11:17:57;100496.75;;;25.32;41.90
10646;BME280;5371;49.782;9.932;2022-07-09T11:20:25;100493.06;;;25.41;42.08
10646;BME280;5371;49.782;9.932;2022-07-09T11:22:53;100487.78;;;25.74;40.97
10646;BME280;5371;49.782;9.932;2022-07-09T11:25:23;100487.72;;;25.98;40.40
10646;BME280;5371;49.782;9.932;2022-07-09T11:27:51;100472.84;;;26.67;39.09
10646;BME280;5371;49.782;9.932;2022-07-09T11:30:19;100476.94;;;27.62;36.17
10646;BME280;5371;49.782;9.932;2022-07-09T11:32:47;100477.09;;;27.38;36.56
10646;BME280;5371;49.782;9.932;2022-07-09T11:35:23;100467.44;;;27.89;36.00
10646;BME280;5371;49.782;9.932;2022-07-09T11:37:51;100467.41;;;28.12;35.47
10646;BME280;5371;49.782;9.932;2022-07-09T11:40:18;100476.56;;;28.03;34.78
10646;BME280;5371;49.782;9.932;2022-07-09T11:42:45;100459.22;;;28.64;33.24
10646;BME280;5371;49.782;9.932;2022-07-09T11:45:12;100459.44;;;28.48;34.12
10646;BME280;5371;49.782;9.932;2022-07-09T11:47:41;100477.00;;;27.91;34.53
10646;BME280;5371;49.782;9.932;2022-07-09T11:50:09;100463.72;;;27.52;35.27
10646;BME280;5371;49.782;9.932;2022-07-09T11:52:41;100460.69;;;27.33;35.89
10646;BME280;5371;49.782;9.932;2022-07-09T11:55:10;100456.59;;;27.22;36.37
10646;BME280;5371;49.782;9.932;2022-07-09T11:57:37;100455.84;;;27.05;36.19
10646;BME280;5371;49.782;9.932;2022-07-09T12:00:06;100446.41;;;26.56;36.98
10646;BME280;5371;49.782;9.932;2022-07-09T12:02:40;100438.53;;;26.54;36.78
10646;BME280;5371;49.782;9.932;2022-07-09T12:05:08;100443.81;;;26.39;36.93
10646;BME280;5371;49.782;9.932;2022-07-09T12:07:35;100434.88;;;26.47;36.51
10646;BME280;5371;49.782;9.932;2022-07-09T12:10:05;100436.59;;;26.71;37.07
10646;BME280;5371;49.782;9.932;2022-07-09T12:12:33;100423.75;;;26.66;35.99
10646;BME280;5371;49.782;9.932;2022-07-09T12:15:01;100419.31;;;26.42;36.43
10646;BME280;5371;49.782;9.932;2022-07-09T12:17:30;100419.34;;;26.34;36.72
10646;BME280;5371;49.782;9.932;2022-07-09T12:19:59;100416.28;;;26.45;36.86
10646;BME280;5371;49.782;9.932;2022-07-09T12:22:26;100414.00;;;26.34;37.38
10646;BME280;5371;49.782;9.932;2022-07-09T12:24:53;100406.97;;;26.33;37.26
10646;BME280;5371;49.782;9.932;2022-07-09T12:27:20;100405.50;;;26.31;37.44
10646;BME280;5371;49.782;9.932;2022-07-09T12:29:47;100404.28;;;26.25;36.50
10646;BME280;5371;49.782;9.932;2022-07-09T12:32:14;100392.06;;;26.23;37.02
10646;BME280;5371;49.782;9.932;2022-07-09T12:34:41;100383.69;;;26.26;37.13
10646;BME280;5371;49.782;9.932;2022-07-09T12:37:09;100392.72;;;26.25;37.28
10646;BME280;5371;49.782;9.932;2022-07-09T12:39:36;100380.91;;;26.11;37.44
10646;BME280;5371;49.782;9.932;2022-07-09T12:42:04;100380.59;;;26.06;37.05
10646;BME280;5371;49.782;9.932;2022-07-09T12:44:31;100382.22;;;26.15;36.85
10646;BME280;5371;49.782;9.932;2022-07-09T12:46:58;100374.94;;;26.01;37.42
10646;BME280;5371;49.782;9.932;2022-07-09T12:49:26;100371.13;;;25.79;37.96
10646;BME280;5371;49.782;9.932;2022-07-09T12:51:52;100368.44;;;25.79;37.70
10646;BME280;5371;49.782;9.932;2022-07-09T12:54:21;100370.63;;;25.84;37.88
10646;BME280;5371;49.782;9.932;2022-07-09T12:56:48;100363.41;;;25.92;38.02
10646;BME280;5371;49.782;9.932;2022-07-09T12:59:16;100359.06;;;25.91;38.50
10646;BME280;5371;49.782;9.932;2022-07-09T13:01:43;100341.44;;;25.97;38.41
10646;BME280;5371;49.782;9.932;2022-07-09T13:04:10;100352.66;;;26.00;38.47